sensor_id;sensor_type;location;lat;lon;timestamp;P1;durP1;ratioP1;P2;durP2;ratioP2
19087;SDS011;9676;50.916;13.352;2022-08-19T00:00:12;17.87;;;15.37;;
19087;SDS011;9676;50.916;13.352;2022-08-19T00:03:04;16.97;;;15.23;;
19087;SDS011;9676;50.916;13.352;2022-08-19T00:05:55;17.23;;;15.43;;
19087;SDS011;9676;50.916;13.352;2022-08-19T00:08:44;17.97;;;16.07;;
19087;SDS011;9676;50.916;13.352;2022-08-19T00:11:34;16.17;;;14.50;;
19087;SDS011;9676;50.916;13.352;2022-08-19T00:14:25;17.50;;;15.70;;
19087;SDS011;9676;50.916;13.352;2022-08-19T00:17:17;16.73;;;15.03;;
19087;SDS011;9676;50.916;13.352;2022-08-19T00:20:09;16.17;;;14.57;;
19087;SDS011;9676;50.916;13.352;2022-08-19T00:23:00;16.60;;;14.80;;
19087;SDS011;9676;50.916;13.352;2022-08-19T00:25:51;17.70;;;14.90;;
19087;SDS011;9676;50.916;13.352;2022-08-19T00:28:40;16.20;;;14.60;;
19087;SDS011;9676;50.916;13.352;2022-08-19T00:31:30;16.10;;;14.50;;
19087;SDS011;9676;50.916;13.352;2022-08-19T00:34:20;16.30;;;14.70;;
19087;SDS011;9676;50.916;13.352;2022-08-19T00:37:12;16.60;;;14.90;;
19087;SDS011;9676;50.916;13.352;2022-08-19T00:40:03;16.90;;;15.10;;
19087;SDS011;9676;50.916;13.352;2022-08-19T00:42:54;16.43;;;14.80;;
19087;SDS011;9676;50.916;13.352;2022-08-19T00:45:43;16.60;;;14.13;;
19087;SDS011;9676;50.916;13.352;2022-08-19T00:48:33;16.63;;;15.03;;
19087;SDS011;9676;50.916;13.352;2022-08-19T00:51:24;16.50;;;14.90;;
19087;SDS011;9676;50.916;13.352;2022-08-19T00:54:16;17.43;;;15.63;;
19087;SDS011;9676;50.916;13.352;2022-08-19T00:57:15;17.83;;;16.07;;
19087;SDS011;9676;50.916;13.352;2022-08-19T01:00:11;16.60;;;14.90;;
19087;SDS011;9676;50.916;13.352;2022-08-19T01:03:04;16.90;;;15.10;;
19087;SDS011;9676;50.916;13.352;2022-08-19T01:05:56;16.17;;;14.57;;
19087;SDS011;9676;50.916;13.352;2022-08-19T01:08:47;16.40;;;14.70;;
19087;SDS011;9676;50.916;13.352;2022-08-19T01:11:39;15.47;;;13.93;;
19087;SDS011;9676;50.916;13.352;2022-08-19T01:14:30;16.30;;;14.70;;
19087;SDS011;9676;50.916;13.352;2022-08-19T01:17:20;16.00;;;14.40;;
19087;SDS011;9676;50.916;13.352;2022-08-19T01:20:11;15.50;;;14.00;;
19087;SDS011;9676;50.916;13.352;2022-08-19T01:23:05;16.50;;;14.90;;
19087;SDS011;9676;50.916;13.352;2022-08-19T01:25:55;15.43;;;13.90;;
19087;SDS011;9676;50.916;13.352;2022-08-19T01:28:46;16.07;;;14.40;;
19087;SDS011;9676;50.916;13.352;2022-08-19T01:31:39;16.67;;;14.80;;
19087;SDS011;9676;50.916;13.352;2022-08-19T01:34:29;17.30;;;15.50;;
19087;SDS011;9676;50.916;13.352;2022-08-19T01:37:21;16.77;;;14.97;;
19087;SDS011;9676;50.916;13.352;2022-08-19T01:40:15;16.57;;;14.87;;
19087;SDS011;9676;50.916;13.352;2022-08-19T01:43:06;16.03;;;14.43;;
19087;SDS011;9676;50.916;13.352;2022-08-19T01:45:56;17.13;;;15.33;;
19087;SDS011;9676;50.916;13.352;2022-08-19T01:48:46;15.60;;;14.07;;
19087;SDS011;9676;50.916;13.352;2022-08-19T01:51:36;15.90;;;14.30;;
19087;SDS011;9676;50.916;13.352;2022-08-19T01:54:27;16.20;;;14.50;;
19087;SDS011;9676;50.916;13.352;2022-08-19T01:57:18;15.90;;;14.40;;
19087;SDS011;9676;50.916;13.352;2022-08-19T02:00:09;17.20;;;14.30;;
19087;SDS011;9676;50.916;13.352;2022-08-19T02:03:02;16.23;;;14.63;;
19087;SDS011;9676;50.916;13.352;2022-08-19T02:05:54;16.60;;;14.83;;
19087;SDS011;9676;50.916;13.352;2022-08-19T02:08:44;16.30;;;14.70;;
19087;SDS011;9676;50.916;13.352;2022-08-19T02:11:37;17.77;;;15.97;;
19087;SDS011;9676;50.916;13.352;2022-08-19T02:14:28;17.07;;;15.27;;
19087;SDS011;9676;50.916;13.352;2022-08-19T02:17:18;19.33;;;15.53;;
19087;SDS011;9676;50.916;13.352;2022-08-19T02:20:08;16.20;;;14.57;;
19087;SDS011;9676;50.916;13.352;2022-08-19T02:23:00;15.97;;;14.37;;
19087;SDS011;9676;50.916;13.352;2022-08-19T02:25:51;16.97;;;15.27;;
19087;SDS011;9676;50.916;13.352;2022-08-19T02:28:41;17.13;;;14.73;;
19087;SDS011;9676;50.916;13.352;2022-08-19T02:31:32;15.90;;;14.30;;
19087;SDS011;9676;50.916;13.352;2022-08-19T02:34:22;17.03;;;15.33;;
19087;SDS011;9676;50.916;13.352;2022-08-19T02:37:12;16.93;;;15.23;;
19087;SDS011;9676;50.916;13.352;2022-08-19T02:40:15;16.30;;;14.67;;
19087;SDS011;9676;50.916;13.352;2022-08-19T02:43:07;17.30;;;15.60;;
19087;SDS011;9676;50.916;13.352;2022-08-19T02:45:58;17.03;;;15.23;;
19087;SDS011;9676;50.916;13.352;2022-08-19T02:48:49;15.73;;;14.13;;
19087;SDS011;9676;50.916;13.352;2022-08-19T02:51:42;16.80;;;15.10;;
19087;SDS011;9676;50.916;13.352;2022-08-19T02:54:33;16.37;;;14.73;;
19087;SDS011;9676;50.916;13.352;2022-08-19T02:57:23;16.90;;;15.10;;
19087;SDS011;9676;50.916;13.352;2022-08-19T03:00:13;16.10;;;14.50;;
19087;SDS011;9676;50.916;13.352;2022-08-19T03:03:03;17.20;;;15.50;;
19087;SDS011;9676;50.916;13.352;2022-08-19T03:06:03;16.37;;;14.67;;
19087;SDS011;9676;50.916;13.352;2022-08-19T03:08:56;15.93;;;14.40;;
19087;SDS011;9676;50.916;13.352;2022-08-19T03:11:46;16.00;;;14.40;;
19087;SDS011;9676;50.916;13.352;2022-08-19T03:14:39;16.20;;;14.60;;
19087;SDS011;9676;50.916;13.352;2022-08-19T03:17:28;17.00;;;15.27;;
19087;SDS011;9676;50.916;13.352;2022-08-19T03:20:18;15.83;;;14.23;;
19087;SDS011;9676;50.916;13.352;2022-08-19T03:23:09;15.30;;;13.90;;
19087;SDS011;9676;50.916;13.352;2022-08-19T03:26:02;16.27;;;14.67;;
19087;SDS011;9676;50.916;13.352;2022-08-19T03:29:03;15.70;;;14.20;;
19087;SDS011;9676;50.916;13.352;2022-08-19T03:31:56;21.10;;;13.97;;
19087;SDS011;9676;50.916;13.352;2022-08-19T03:34:47;15.77;;;14.27;;
19087;SDS011;9676;50.916;13.352;2022-08-19T03:37:38;16.23;;;14.63;;
19087;SDS011;9676;50.916;13.352;2022-08-19T03:40:29;15.50;;;13.90;;
19087;SDS011;9676;50.916;13.352;2022-08-19T03:43:19;15.87;;;14.27;;
19087;SDS011;9676;50.916;13.352;2022-08-19T03:46:09;15.70;;;14.20;;
19087;SDS011;9676;50.916;13.352;2022-08-19T03:49:04;15.80;;;14.20;;
19087;SDS011;9676;50.916;13.352;2022-08-19T03:51:54;15.20;;;13.60;;
19087;SDS011;9676;50.916;13.352;2022-08-19T03:54:47;15.43;;;13.83;;
19087;SDS011;9676;50.916;13.352;2022-08-19T03:57:38;15.90;;;14.37;;
19087;SDS011;9676;50.916;13.352;2022-08-19T04:00:27;15.30;;;13.70;;
19087;SDS011;9676;50.916;13.352;2022-08-19T04:03:17;15.10;;;13.63;;
19087;SDS011;9676;50.916;13.352;2022-08-19T04:06:10;15.17;;;13.40;;
19087;SDS011;9676;50.916;13.352;2022-08-19T04:09:04;14.30;;;12.90;;
19087;SDS011;9676;50.916;13.352;2022-08-19T04:11:56;14.70;;;13.30;;
19087;SDS011;9676;50.916;13.352;2022-08-19T04:14:48;15.30;;;13.80;;
19087;SDS011;9676;50.916;13.352;2022-08-19T04:17:38;14.40;;;12.90;;
19087;SDS011;9676;50.916;13.352;2022-08-19T04:20:28;14.67;;;13.27;;
19087;SDS011;9676;50.916;13.352;2022-08-19T04:23:17;15.03;;;13.53;;
19087;SDS011;9676;50.916;13.352;2022-08-19T04:26:07;14.60;;;13.20;;
19087;SDS011;9676;50.916;13.352;2022-08-19T04:29:04;14.97;;;13.57;;
19087;SDS011;9676;50.916;13.352;2022-08-19T04:32:01;13.93;;;12.63;;
19087;SDS011;9676;50.916;13.352;2022-08-19T04:34:55;14.73;;;13.27;;
19087;SDS011;9676;50.916;13.352;2022-08-19T04:38:02;14.53;;;13.13;;
19087;SDS011;9676;50.916;13.352;2022-08-19T04:40:52;14.90;;;13.40;;
19087;SDS011;9676;50.916;13.352;2022-08-19T04:43:59;41.23;;;26.00;;
19087;SDS011;9676;50.916;13.352;2022-08-19T04:46:51;29.93;;;22.50;;
19087;SDS011;9676;50.916;13.352;2022-08-19T04:49:43;20.50;;;17.47;;
19087;SDS011;9676;50.916;13.352;2022-08-19T04:52:32;21.10;;;17.40;;
19087;SDS011;9676;50.916;13.352;2022-08-19T04:55:22;16.60;;;14.80;;
19087;SDS011;9676;50.916;13.352;2022-08-19T04:58:13;17.13;;;15.33;;
19087;SDS011;9676;50.916;13.352;2022-08-19T05:01:03;20.50;;;17.40;;
19087;SDS011;9676;50.916;13.352;2022-08-19T05:03:54;18.13;;;15.57;;
19087;SDS011;9676;50.916;13.352;2022-08-19T05:06:45;17.00;;;15.30;;
19087;SDS011;9676;50.916;13.352;2022-08-19T05:09:36;16.73;;;15.03;;
19087;SDS011;9676;50.916;13.352;2022-08-19T05:12:45;16.17;;;14.60;;
19087;SDS011;9676;50.916;13.352;2022-08-19T05:15:34;16.27;;;14.57;;
19087;SDS011;9676;50.916;13.352;2022-08-19T05:18:24;16.00;;;14.40;;
19087;SDS011;9676;50.916;13.352;2022-08-19T05:21:32;15.47;;;13.97;;
19087;SDS011;9676;50.916;13.352;2022-08-19T05:24:40;15.50;;;13.90;;
19087;SDS011;9676;50.916;13.352;2022-08-19T05:27:50;75.40;;;42.97;;
19087;SDS011;9676;50.916;13.352;2022-08-19T05:30:39;55.00;;;36.60;;
19087;SDS011;9676;50.916;13.352;2022-08-19T05:33:34;37.97;;;27.77;;
19087;SDS011;9676;50.916;13.352;2022-08-19T05:36:23;29.87;;;22.83;;
19087;SDS011;9676;50.916;13.352;2022-08-19T05:39:13;23.40;;;20.10;;
19087;SDS011;9676;50.916;13.352;2022-08-19T05:42:08;18.77;;;16.80;;
19087;SDS011;9676;50.916;13.352;2022-08-19T05:45:00;17.33;;;15.27;;
19087;SDS011;9676;50.916;13.352;2022-08-19T05:47:49;18.43;;;16.33;;
19087;SDS011;9676;50.916;13.352;2022-08-19T05:50:39;16.77;;;14.97;;
19087;SDS011;9676;50.916;13.352;2022-08-19T05:53:32;15.83;;;14.27;;
19087;SDS011;9676;50.916;13.352;2022-08-19T05:56:23;15.70;;;14.20;;
19087;SDS011;9676;50.916;13.352;2022-08-19T05:59:15;15.80;;;14.20;;
19087;SDS011;9676;50.916;13.352;2022-08-19T06:02:11;15.33;;;13.83;;
19087;SDS011;9676;50.916;13.352;2022-08-19T06:05:02;15.50;;;14.00;;
19087;SDS011;9676;50.916;13.352;2022-08-19T06:07:54;15.17;;;13.67;;
19087;SDS011;9676;50.916;13.352;2022-08-19T06:10:43;14.97;;;13.37;;
19087;SDS011;9676;50.916;13.352;2022-08-19T06:13:33;16.43;;;14.40;;
19087;SDS011;9676;50.916;13.352;2022-08-19T06:16:24;16.33;;;14.63;;
19087;SDS011;9676;50.916;13.352;2022-08-19T06:19:15;15.73;;;14.13;;
19087;SDS011;9676;50.916;13.352;2022-08-19T06:22:06;16.90;;;15.10;;
19087;SDS011;9676;50.916;13.352;2022-08-19T06:24:59;16.00;;;14.33;;
19087;SDS011;9676;50.916;13.352;2022-08-19T06:27:48;17.77;;;14.63;;
19087;SDS011;9676;50.916;13.352;2022-08-19T06:30:58;16.67;;;14.97;;
19087;SDS011;9676;50.916;13.352;2022-08-19T06:33:50;16.70;;;15.00;;
19087;SDS011;9676;50.916;13.352;2022-08-19T06:36:40;17.10;;;15.30;;
19087;SDS011;9676;50.916;13.352;2022-08-19T06:39:34;16.90;;;15.17;;
19087;SDS011;9676;50.916;13.352;2022-08-19T06:42:26;16.20;;;14.50;;
19087;SDS011;9676;50.916;13.352;2022-08-19T06:45:16;18.07;;;14.60;;
19087;SDS011;9676;50.916;13.352;2022-08-19T06:48:11;17.20;;;14.80;;
19087;SDS011;9676;50.916;13.352;2022-08-19T06:51:02;17.27;;;14.80;;
19087;SDS011;9676;50.916;13.352;2022-08-19T06:53:55;16.80;;;14.83;;
19087;SDS011;9676;50.916;13.352;2022-08-19T06:56:44;16.30;;;14.60;;
19087;SDS011;9676;50.916;13.352;2022-08-19T06:59:34;15.97;;;14.37;;
19087;SDS011;9676;50.916;13.352;2022-08-19T07:02:24;15.60;;;13.83;;
19087;SDS011;9676;50.916;13.352;2022-08-19T07:05:14;16.63;;;13.97;;
19087;SDS011;9676;50.916;13.352;2022-08-19T07:08:08;15.37;;;13.77;;
19087;SDS011;9676;50.916;13.352;2022-08-19T07:10:58;15.37;;;13.83;;
19087;SDS011;9676;50.916;13.352;2022-08-19T07:13:47;15.30;;;13.70;;
19087;SDS011;9676;50.916;13.352;2022-08-19T07:16:40;15.73;;;14.13;;
19087;SDS011;9676;50.916;13.352;2022-08-19T07:19:30;16.60;;;14.87;;
19087;SDS011;9676;50.916;13.352;2022-08-19T07:22:20;16.00;;;14.30;;
19087;SDS011;9676;50.916;13.352;2022-08-19T07:25:12;16.20;;;14.07;;
19087;SDS011;9676;50.916;13.352;2022-08-19T07:28:03;15.10;;;13.30;;
19087;SDS011;9676;50.916;13.352;2022-08-19T07:31:11;15.77;;;14.17;;
19087;SDS011;9676;50.916;13.352;2022-08-19T07:34:05;15.50;;;13.90;;
19087;SDS011;9676;50.916;13.352;2022-08-19T07:36:57;15.77;;;14.20;;
19087;SDS011;9676;50.916;13.352;2022-08-19T07:39:47;14.37;;;12.97;;
19087;SDS011;9676;50.916;13.352;2022-08-19T07:42:38;14.33;;;12.90;;
19087;SDS011;9676;50.916;13.352;2022-08-19T07:45:28;14.80;;;13.27;;
19087;SDS011;9676;50.916;13.352;2022-08-19T07:48:19;14.67;;;13.17;;
19087;SDS011;9676;50.916;13.352;2022-08-19T07:51:13;14.03;;;12.53;;
19087;SDS011;9676;50.916;13.352;2022-08-19T07:54:24;14.00;;;12.50;;
19087;SDS011;9676;50.916;13.352;2022-08-19T07:57:16;14.50;;;12.27;;
19087;SDS011;9676;50.916;13.352;2022-08-19T08:00:08;13.77;;;12.37;;
19087;SDS011;9676;50.916;13.352;2022-08-19T08:02:58;13.67;;;12.27;;
19087;SDS011;9676;50.916;13.352;2022-08-19T08:05:48;15.03;;;13.53;;
19087;SDS011;9676;50.916;13.352;2022-08-19T08:08:54;14.53;;;13.03;;
19087;SDS011;9676;50.916;13.352;2022-08-19T08:12:03;15.10;;;13.53;;
19087;SDS011;9676;50.916;13.352;2022-08-19T08:15:18;16.07;;;14.47;;
19087;SDS011;9676;50.916;13.352;2022-08-19T08:18:11;15.23;;;13.63;;
19087;SDS011;9676;50.916;13.352;2022-08-19T08:21:01;15.47;;;13.87;;
19087;SDS011;9676;50.916;13.352;2022-08-19T08:23:51;16.70;;;14.80;;
19087;SDS011;9676;50.916;13.352;2022-08-19T08:26:42;14.97;;;13.40;;
19087;SDS011;9676;50.916;13.352;2022-08-19T08:29:43;15.67;;;14.10;;
19087;SDS011;9676;50.916;13.352;2022-08-19T08:32:34;15.50;;;13.90;;
19087;SDS011;9676;50.916;13.352;2022-08-19T08:35:27;15.13;;;13.70;;
19087;SDS011;9676;50.916;13.352;2022-08-19T08:38:17;15.50;;;13.90;;
19087;SDS011;9676;50.916;13.352;2022-08-19T08:41:09;14.33;;;12.93;;
19087;SDS011;9676;50.916;13.352;2022-08-19T08:44:11;14.53;;;13.03;;
19087;SDS011;9676;50.916;13.352;2022-08-19T08:47:09;15.23;;;13.70;;
19087;SDS011;9676;50.916;13.352;2022-08-19T08:50:06;15.00;;;13.50;;
19087;SDS011;9676;50.916;13.352;2022-08-19T08:53:02;16.20;;;14.60;;
19087;SDS011;9676;50.916;13.352;2022-08-19T08:55:54;15.80;;;14.20;;
19087;SDS011;9676;50.916;13.352;2022-08-19T08:58:46;16.13;;;14.53;;
19087;SDS011;9676;50.916;13.352;2022-08-19T09:01:41;16.57;;;14.90;;
19087;SDS011;9676;50.916;13.352;2022-08-19T09:04:31;15.83;;;14.23;;
19087;SDS011;9676;50.916;13.352;2022-08-19T09:07:25;15.70;;;14.10;;
19087;SDS011;9676;50.916;13.352;2022-08-19T09:10:31;16.57;;;14.83;;
19087;SDS011;9676;50.916;13.352;2022-08-19T09:13:34;16.60;;;14.90;;
19087;SDS011;9676;50.916;13.352;2022-08-19T09:16:32;16.90;;;15.10;;
19087;SDS011;9676;50.916;13.352;2022-08-19T09:19:23;16.77;;;15.07;;
19087;SDS011;9676;50.916;13.352;2022-08-19T09:22:15;17.00;;;15.20;;
19087;SDS011;9676;50.916;13.352;2022-08-19T09:25:14;16.27;;;14.57;;
19087;SDS011;9676;50.916;13.352;2022-08-19T09:28:13;17.40;;;15.43;;
19087;SDS011;9676;50.916;13.352;2022-08-19T09:31:12;17.03;;;15.33;;
19087;SDS011;9676;50.916;13.352;2022-08-19T09:34:03;16.60;;;14.90;;
19087;SDS011;9676;50.916;13.352;2022-08-19T09:36:53;16.20;;;14.60;;
19087;SDS011;9676;50.916;13.352;2022-08-19T09:39:45;17.23;;;15.43;;
19087;SDS011;9676;50.916;13.352;2022-08-19T09:42:37;17.53;;;15.73;;
19087;SDS011;9676;50.916;13.352;2022-08-19T09:45:38;15.93;;;14.43;;
19087;SDS011;9676;50.916;13.352;2022-08-19T09:48:28;15.63;;;14.10;;
19087;SDS011;9676;50.916;13.352;2022-08-19T09:51:19;16.07;;;14.40;;
19087;SDS011;9676;50.916;13.352;2022-08-19T09:54:11;15.90;;;14.30;;
19087;SDS011;9676;50.916;13.352;2022-08-19T09:57:10;16.93;;;15.23;;
19087;SDS011;9676;50.916;13.352;2022-08-19T10:00:00;17.27;;;15.47;;
19087;SDS011;9676;50.916;13.352;2022-08-19T10:03:13;15.50;;;13.90;;
19087;SDS011;9676;50.916;13.352;2022-08-19T10:06:03;15.53;;;14.03;;
19087;SDS011;9676;50.916;13.352;2022-08-19T10:09:04;15.10;;;13.50;;
19087;SDS011;9676;50.916;13.352;2022-08-19T10:11:55;14.83;;;13.33;;
19087;SDS011;9676;50.916;13.352;2022-08-19T10:14:49;14.33;;;12.87;;
19087;SDS011;9676;50.916;13.352;2022-08-19T10:17:42;14.30;;;12.90;;
19087;SDS011;9676;50.916;13.352;2022-08-19T10:20:41;13.30;;;12.00;;
19087;SDS011;9676;50.916;13.352;2022-08-19T10:23:31;13.50;;;12.20;;
19087;SDS011;9676;50.916;13.352;2022-08-19T10:26:22;12.97;;;11.77;;
19087;SDS011;9676;50.916;13.352;2022-08-19T10:29:14;12.17;;;11.00;;
19087;SDS011;9676;50.916;13.352;2022-08-19T10:32:19;10.93;;;9.93;;
19087;SDS011;9676;50.916;13.352;2022-08-19T10:35:21;10.93;;;9.93;;
19087;SDS011;9676;50.916;13.352;2022-08-19T10:38:14;11.03;;;10.00;;
19087;SDS011;9676;50.916;13.352;2022-08-19T10:41:07;11.10;;;10.10;;
19087;SDS011;9676;50.916;13.352;2022-08-19T10:44:00;10.80;;;9.70;;
19087;SDS011;9676;50.916;13.352;2022-08-19T10:46:52;10.43;;;9.53;;
19087;SDS011;9676;50.916;13.352;2022-08-19T10:49:43;10.40;;;9.40;;
19087;SDS011;9676;50.916;13.352;2022-08-19T10:52:51;11.77;;;9.37;;
19087;SDS011;9676;50.916;13.352;2022-08-19T10:55:44;9.67;;;8.87;;
19087;SDS011;9676;50.916;13.352;2022-08-19T10:58:51;9.90;;;9.00;;
19087;SDS011;9676;50.916;13.352;2022-08-19T11:01:41;9.80;;;8.90;;
19087;SDS011;9676;50.916;13.352;2022-08-19T11:04:32;10.03;;;9.13;;
19087;SDS011;9676;50.916;13.352;2022-08-19T11:07:22;10.13;;;9.23;;
19087;SDS011;9676;50.916;13.352;2022-08-19T11:10:14;11.03;;;9.50;;
19087;SDS011;9676;50.916;13.352;2022-08-19T11:13:08;10.37;;;9.43;;
19087;SDS011;9676;50.916;13.352;2022-08-19T11:15:59;10.87;;;9.90;;
19087;SDS011;9676;50.916;13.352;2022-08-19T11:18:54;10.40;;;9.50;;
19087;SDS011;9676;50.916;13.352;2022-08-19T11:21:47;11.10;;;10.10;;
19087;SDS011;9676;50.916;13.352;2022-08-19T11:24:37;11.20;;;10.10;;
19087;SDS011;9676;50.916;13.352;2022-08-19T11:27:28;11.37;;;10.27;;
19087;SDS011;9676;50.916;13.352;2022-08-19T11:30:18;11.40;;;10.20;;
19087;SDS011;9676;50.916;13.352;2022-08-19T11:33:07;12.20;;;10.67;;
19087;SDS011;9676;50.916;13.352;2022-08-19T11:35:58;12.00;;;10.90;;
19087;SDS011;9676;50.916;13.352;2022-08-19T11:38:48;11.60;;;10.50;;
19087;SDS011;9676;50.916;13.352;2022-08-19T11:41:38;11.83;;;10.73;;
19087;SDS011;9676;50.916;13.352;2022-08-19T11:44:29;12.50;;;11.30;;
19087;SDS011;9676;50.916;13.352;2022-08-19T11:47:23;13.20;;;11.97;;
19087;SDS011;9676;50.916;13.352;2022-08-19T11:50:13;12.77;;;11.57;;
19087;SDS011;9676;50.916;13.352;2022-08-19T11:53:03;12.40;;;11.20;;
19087;SDS011;9676;50.916;13.352;2022-08-19T11:55:56;13.30;;;12.00;;
19087;SDS011;9676;50.916;13.352;2022-08-19T11:58:46;19.80;;;16.60;;
19087;SDS011;9676;50.916;13.352;2022-08-19T12:01:37;16.80;;;14.37;;
19087;SDS011;9676;50.916;13.352;2022-08-19T12:04:28;16.87;;;15.10;;
19087;SDS011;9676;50.916;13.352;2022-08-19T12:07:17;16.23;;;14.60;;
19087;SDS011;9676;50.916;13.352;2022-08-19T12:10:07;17.77;;;15.20;;
19087;SDS011;9676;50.916;13.352;2022-08-19T12:12:58;17.00;;;15.30;;
19087;SDS011;9676;50.916;13.352;2022-08-19T12:15:48;16.40;;;14.70;;
19087;SDS011;9676;50.916;13.352;2022-08-19T12:18:39;17.67;;;15.83;;
19087;SDS011;9676;50.916;13.352;2022-08-19T12:21:32;17.17;;;15.37;;
19087;SDS011;9676;50.916;13.352;2022-08-19T12:24:23;17.00;;;15.20;;
19087;SDS011;9676;50.916;13.352;2022-08-19T12:27:12;17.20;;;15.40;;
19087;SDS011;9676;50.916;13.352;2022-08-19T12:30:18;24.57;;;20.33;;
19087;SDS011;9676;50.916;13.352;2022-08-19T12:33:08;25.20;;;21.57;;
19087;SDS011;9676;50.916;13.352;2022-08-19T12:36:01;23.97;;;19.83;;
19087;SDS011;9676;50.916;13.352;2022-08-19T12:38:53;21.83;;;18.03;;
19087;SDS011;9676;50.916;13.352;2022-08-19T12:41:43;19.23;;;17.23;;
19087;SDS011;9676;50.916;13.352;2022-08-19T12:44:41;20.63;;;17.97;;
19087;SDS011;9676;50.916;13.352;2022-08-19T12:47:32;19.80;;;17.70;;
19087;SDS011;9676;50.916;13.352;2022-08-19T12:50:25;19.17;;;17.10;;
19087;SDS011;9676;50.916;13.352;2022-08-19T12:53:16;19.00;;;17.00;;
19087;SDS011;9676;50.916;13.352;2022-08-19T12:56:06;18.50;;;16.60;;
19087;SDS011;9676;50.916;13.352;2022-08-19T12:59:00;19.70;;;17.60;;
19087;SDS011;9676;50.916;13.352;2022-08-19T13:01:50;19.13;;;17.07;;
19087;SDS011;9676;50.916;13.352;2022-08-19T13:04:40;19.03;;;16.73;;
19087;SDS011;9676;50.916;13.352;2022-08-19T13:07:31;19.40;;;17.30;;
19087;SDS011;9676;50.916;13.352;2022-08-19T13:10:23;19.40;;;17.37;;
19087;SDS011;9676;50.916;13.352;2022-08-19T13:13:16;21.40;;;17.67;;
19087;SDS011;9676;50.916;13.352;2022-08-19T13:16:05;19.47;;;16.80;;
19087;SDS011;9676;50.916;13.352;2022-08-19T13:18:57;21.57;;;18.40;;
19087;SDS011;9676;50.916;13.352;2022-08-19T13:21:48;20.50;;;18.07;;
19087;SDS011;9676;50.916;13.352;2022-08-19T13:24:46;21.07;;;17.30;;
19087;SDS011;9676;50.916;13.352;2022-08-19T13:27:38;20.70;;;17.80;;
19087;SDS011;9676;50.916;13.352;2022-08-19T13:30:28;20.37;;;18.17;;
19087;SDS011;9676;50.916;13.352;2022-08-19T13:33:35;20.40;;;17.80;;
19087;SDS011;9676;50.916;13.352;2022-08-19T13:36:25;21.40;;;18.03;;
19087;SDS011;9676;50.916;13.352;2022-08-19T13:39:15;22.13;;;19.40;;
19087;SDS011;9676;50.916;13.352;2022-08-19T13:42:04;22.30;;;19.40;;
19087;SDS011;9676;50.916;13.352;2022-08-19T13:44:57;22.57;;;19.00;;
19087;SDS011;9676;50.916;13.352;2022-08-19T13:47:46;27.10;;;22.40;;
19087;SDS011;9676;50.916;13.352;2022-08-19T13:50:45;23.27;;;20.43;;
19087;SDS011;9676;50.916;13.352;2022-08-19T13:53:35;21.47;;;19.17;;
19087;SDS011;9676;50.916;13.352;2022-08-19T13:56:26;22.80;;;19.33;;
19087;SDS011;9676;50.916;13.352;2022-08-19T13:59:15;22.53;;;19.27;;
19087;SDS011;9676;50.916;13.352;2022-08-19T14:02:07;19.83;;;17.77;;
19087;SDS011;9676;50.916;13.352;2022-08-19T14:04:58;20.90;;;18.07;;
19087;SDS011;9676;50.916;13.352;2022-08-19T14:07:48;20.30;;;18.17;;
19087;SDS011;9676;50.916;13.352;2022-08-19T14:10:37;22.73;;;19.20;;
19087;SDS011;9676;50.916;13.352;2022-08-19T14:13:28;22.00;;;19.60;;
19087;SDS011;9676;50.916;13.352;2022-08-19T14:16:18;23.00;;;19.17;;
19087;SDS011;9676;50.916;13.352;2022-08-19T14:19:10;23.13;;;19.57;;
19087;SDS011;9676;50.916;13.352;2022-08-19T14:21:59;21.00;;;18.80;;
19087;SDS011;9676;50.916;13.352;2022-08-19T14:24:49;24.27;;;21.43;;
19087;SDS011;9676;50.916;13.352;2022-08-19T14:27:39;22.27;;;19.47;;
19087;SDS011;9676;50.916;13.352;2022-08-19T14:30:30;20.83;;;18.60;;
19087;SDS011;9676;50.916;13.352;2022-08-19T14:33:22;25.30;;;19.97;;
19087;SDS011;9676;50.916;13.352;2022-08-19T14:36:18;22.23;;;18.93;;
19087;SDS011;9676;50.916;13.352;2022-08-19T14:39:08;22.53;;;18.87;;
19087;SDS011;9676;50.916;13.352;2022-08-19T14:41:58;19.80;;;17.70;;
19087;SDS011;9676;50.916;13.352;2022-08-19T14:44:48;20.67;;;18.50;;
19087;SDS011;9676;50.916;13.352;2022-08-19T14:47:38;21.10;;;17.87;;
19087;SDS011;9676;50.916;13.352;2022-08-19T14:50:28;19.97;;;17.87;;
19087;SDS011;9676;50.916;13.352;2022-08-19T14:53:19;20.03;;;16.90;;
19087;SDS011;9676;50.916;13.352;2022-08-19T14:56:09;18.83;;;16.70;;
19087;SDS011;9676;50.916;13.352;2022-08-19T14:59:01;17.83;;;15.93;;
19087;SDS011;9676;50.916;13.352;2022-08-19T15:01:51;19.03;;;17.00;;
19087;SDS011;9676;50.916;13.352;2022-08-19T15:04:41;18.30;;;16.43;;
19087;SDS011;9676;50.916;13.352;2022-08-19T15:07:30;17.10;;;15.40;;
19087;SDS011;9676;50.916;13.352;2022-08-19T15:10:22;18.30;;;15.90;;
19087;SDS011;9676;50.916;13.352;2022-08-19T15:13:12;17.53;;;15.77;;
19087;SDS011;9676;50.916;13.352;2022-08-19T15:16:02;18.07;;;16.20;;
19087;SDS011;9676;50.916;13.352;2022-08-19T15:18:58;31.40;;;22.67;;
19087;SDS011;9676;50.916;13.352;2022-08-19T15:21:48;26.77;;;20.57;;
19087;SDS011;9676;50.916;13.352;2022-08-19T15:24:37;24.17;;;20.40;;
19087;SDS011;9676;50.916;13.352;2022-08-19T15:27:35;22.60;;;17.80;;
19087;SDS011;9676;50.916;13.352;2022-08-19T15:30:27;19.50;;;17.43;;
19087;SDS011;9676;50.916;13.352;2022-08-19T15:33:17;20.00;;;17.90;;
19087;SDS011;9676;50.916;13.352;2022-08-19T15:36:07;21.80;;;18.70;;
19087;SDS011;9676;50.916;13.352;2022-08-19T15:39:04;20.80;;;17.80;;
19087;SDS011;9676;50.916;13.352;2022-08-19T15:41:56;20.37;;;18.00;;
19087;SDS011;9676;50.916;13.352;2022-08-19T15:44:49;19.47;;;16.97;;
19087;SDS011;9676;50.916;13.352;2022-08-19T15:47:40;21.37;;;18.00;;
19087;SDS011;9676;50.916;13.352;2022-08-19T15:50:30;19.33;;;17.43;;
19087;SDS011;9676;50.916;13.352;2022-08-19T15:53:20;19.63;;;17.20;;
19087;SDS011;9676;50.916;13.352;2022-08-19T15:56:10;20.07;;;17.97;;
19087;SDS011;9676;50.916;13.352;2022-08-19T15:59:00;19.90;;;17.50;;
19087;SDS011;9676;50.916;13.352;2022-08-19T16:02:08;19.40;;;17.00;;
19087;SDS011;9676;50.916;13.352;2022-08-19T16:05:19;18.50;;;16.60;;
19087;SDS011;9676;50.916;13.352;2022-08-19T16:08:28;20.90;;;15.93;;
19087;SDS011;9676;50.916;13.352;2022-08-19T16:11:35;18.73;;;16.00;;
19087;SDS011;9676;50.916;13.352;2022-08-19T16:14:26;19.50;;;16.47;;
19087;SDS011;9676;50.916;13.352;2022-08-19T16:17:18;18.73;;;16.73;;
19087;SDS011;9676;50.916;13.352;2022-08-19T16:20:09;17.53;;;15.77;;
19087;SDS011;9676;50.916;13.352;2022-08-19T16:22:59;19.77;;;16.63;;
19087;SDS011;9676;50.916;13.352;2022-08-19T16:25:50;18.50;;;15.73;;
19087;SDS011;9676;50.916;13.352;2022-08-19T16:28:40;17.60;;;15.80;;
19087;SDS011;9676;50.916;13.352;2022-08-19T16:31:35;17.13;;;15.20;;
19087;SDS011;9676;50.916;13.352;2022-08-19T16:34:26;18.43;;;16.50;;
19087;SDS011;9676;50.916;13.352;2022-08-19T16:37:16;18.10;;;15.67;;
19087;SDS011;9676;50.916;13.352;2022-08-19T16:40:09;18.90;;;16.43;;
19087;SDS011;9676;50.916;13.352;2022-08-19T16:42:59;17.53;;;15.60;;
19087;SDS011;9676;50.916;13.352;2022-08-19T16:45:50;18.87;;;16.40;;
19087;SDS011;9676;50.916;13.352;2022-08-19T16:48:41;17.63;;;15.73;;